sensor_id;sensor_type;location;lat;lon;timestamp;pressure;altitude;pressure_sealevel;temperature;humidity
62680;BME280;68213;40.528;44.712;2023-08-07T00:00:56;80530.25;;;17.11;62.30
62680;BME280;68213;40.528;44.712;2023-08-07T00:01:57;80525.63;;;17.12;62.59
62680;BME280;68213;40.528;44.712;2023-08-07T00:02:58;80530.88;;;17.10;62.51
62680;BME280;68213;40.528;44.712;2023-08-07T00:03:58;80526.78;;;17.07;62.30
62680;BME280;68213;40.528;44.712;2023-08-07T00:04:59;80532.09;;;17.07;62.07
62680;BME280;68213;40.528;44.712;2023-08-07T00:06:00;80526.19;;;17.08;61.93
62680;BME280;68213;40.528;44.712;2023-08-07T00:07:03;80529.50;;;17.09;61.82
62680;BME280;68213;40.528;44.712;2023-08-07T00:08:04;80527.47;;;17.07;62.00
62680;BME280;68213;40.528;44.712;2023-08-07T00:09:05;80526.78;;;17.07;62.23
62680;BME280;68213;40.528;44.712;2023-08-07T00:10:06;80528.06;;;17.06;62.51
62680;BME280;68213;40.528;44.712;2023-08-07T00:11:08;80527.41;;;17.05;62.57
62680;BME280;68213;40.528;44.712;2023-08-07T00:12:09;80523.94;;;17.01;62.88
62680;BME280;68213;40.528;44.712;2023-08-07T00:13:10;80515.63;;;16.90;63.03
62680;BME280;68213;40.528;44.712;2023-08-07T00:14:10;80522.78;;;16.86;63.32
62680;BME280;68213;40.528;44.712;2023-08-07T00:15:13;80522.72;;;16.84;63.31
62680;BME280;68213;40.528;44.712;2023-08-07T00:16:14;80520.53;;;16.78;63.14
62680;BME280;68213;40.528;44.712;2023-08-07T00:17:15;80518.56;;;16.78;63.00
62680;BME280;68213;40.528;44.712;2023-08-07T00:18:15;80516.41;;;16.73;63.17
62680;BME280;68213;40.528;44.712;2023-08-07T00:19:16;80525.78;;;16.76;63.21
62680;BME280;68213;40.528;44.712;2023-08-07T00:20:19;80503.47;;;16.63;63.21
62680;BME280;68213;40.528;44.712;2023-08-07T00:21:20;80531.06;;;16.76;63.11
62680;BME280;68213;40.528;44.712;2023-08-07T00:22:21;80526.38;;;16.74;63.19
62680;BME280;68213;40.528;44.712;2023-08-07T00:23:22;80517.06;;;16.73;62.59
62680;BME280;68213;40.528;44.712;2023-08-07T00:24:22;80527.00;;;16.73;63.21
62680;BME280;68213;40.528;44.712;2023-08-07T00:25:23;80521.69;;;16.73;63.07
62680;BME280;68213;40.528;44.712;2023-08-07T00:26:25;80524.97;;;16.71;62.88
62680;BME280;68213;40.528;44.712;2023-08-07T00:27:26;80519.53;;;16.67;63.10
62680;BME280;68213;40.528;44.712;2023-08-07T00:28:26;80520.88;;;16.68;63.32
62680;BME280;68213;40.528;44.712;2023-08-07T00:29:28;80526.06;;;16.64;63.22
62680;BME280;68213;40.528;44.712;2023-08-07T00:30:29;80524.00;;;16.62;63.30
62680;BME280;68213;40.528;44.712;2023-08-07T00:31:29;80521.97;;;16.61;62.99
62680;BME280;68213;40.528;44.712;2023-08-07T00:32:31;80500.47;;;16.53;63.06
62680;BME280;68213;40.528;44.712;2023-08-07T00:33:32;80504.34;;;16.49;62.97
62680;BME280;68213;40.528;44.712;2023-08-07T00:34:33;80521.31;;;16.60;62.95
62680;BME280;68213;40.528;44.712;2023-08-07T00:35:33;80516.53;;;16.57;63.06
62680;BME280;68213;40.528;44.712;2023-08-07T00:36:34;80521.03;;;16.52;63.40
62680;BME280;68213;40.528;44.712;2023-08-07T00:37:35;80523.69;;;16.52;63.27
62680;BME280;68213;40.528;44.712;2023-08-07T00:38:35;80514.28;;;16.49;63.38
62680;BME280;68213;40.528;44.712;2023-08-07T00:39:36;80522.88;;;16.47;63.22
62680;BME280;68213;40.528;44.712;2023-08-07T00:40:38;80521.31;;;16.40;63.67
62680;BME280;68213;40.528;44.712;2023-08-07T00:41:39;80510.53;;;16.36;63.65
62680;BME280;68213;40.528;44.712;2023-08-07T00:42:39;80511.91;;;16.37;63.57
62680;BME280;68213;40.528;44.712;2023-08-07T00:43:40;80513.13;;;16.34;63.95
62680;BME280;68213;40.528;44.712;2023-08-07T00:44:41;80515.72;;;16.32;63.97
62680;BME280;68213;40.528;44.712;2023-08-07T00:45:43;80514.34;;;16.31;64.11
62680;BME280;68213;40.528;44.712;2023-08-07T00:46:45;80515.56;;;16.28;64.30
62680;BME280;68213;40.528;44.712;2023-08-07T00:47:46;80514.22;;;16.27;63.93
62680;BME280;68213;40.528;44.712;2023-08-07T00:48:47;80515.56;;;16.28;63.98
62680;BME280;68213;40.528;44.712;2023-08-07T00:49:48;80512.91;;;16.28;63.71
62680;BME280;68213;40.528;44.712;2023-08-07T00:50:49;80522.09;;;16.25;64.30
62680;BME280;68213;40.528;44.712;2023-08-07T00:51:51;80515.44;;;16.24;63.67
62680;BME280;68213;40.528;44.712;2023-08-07T00:52:53;80518.09;;;16.24;64.11
62680;BME280;68213;40.528;44.712;2023-08-07T00:53:54;80512.72;;;16.22;64.08
62680;BME280;68213;40.528;44.712;2023-08-07T00:54:54;80518.56;;;16.18;63.84
62680;BME280;68213;40.528;44.712;2023-08-07T00:55:55;80516.66;;;16.21;63.94
62680;BME280;68213;40.528;44.712;2023-08-07T00:57:11;80525.31;;;16.21;63.83
62680;BME280;68213;40.528;44.712;2023-08-07T00:58:12;80505.63;;;16.08;63.69
62680;BME280;68213;40.528;44.712;2023-08-07T00:59:14;80524.69;;;16.23;63.38
62680;BME280;68213;40.528;44.712;2023-08-07T01:00:16;80523.25;;;16.20;63.47
62680;BME280;68213;40.528;44.712;2023-08-07T01:01:17;80523.25;;;16.20;63.20
62680;BME280;68213;40.528;44.712;2023-08-07T01:02:19;80527.19;;;16.18;63.29
62680;BME280;68213;40.528;44.712;2023-08-07T01:03:20;80502.78;;;16.02;63.62
62680;BME280;68213;40.528;44.712;2023-08-07T01:04:21;80523.19;;;16.17;63.34
62680;BME280;68213;40.528;44.712;2023-08-07T01:05:24;80514.41;;;16.13;62.94
62680;BME280;68213;40.528;44.712;2023-08-07T01:06:26;80523.19;;;16.17;62.97
62680;BME280;68213;40.528;44.712;2023-08-07T01:07:27;80513.94;;;16.18;63.09
62680;BME280;68213;40.528;44.712;2023-08-07T01:08:27;80519.91;;;16.19;63.19
62680;BME280;68213;40.528;44.712;2023-08-07T01:09:28;80513.25;;;16.18;63.02
62680;BME280;68213;40.528;44.712;2023-08-07T01:11:50;80512.63;;;16.20;62.92
62680;BME280;68213;40.528;44.712;2023-08-07T01:13:04;80512.63;;;16.20;63.13
62680;BME280;68213;40.528;44.712;2023-08-07T01:14:19;80513.94;;;16.18;63.14
62680;BME280;68213;40.528;44.712;2023-08-07T01:15:27;80515.22;;;16.17;63.34
62680;BME280;68213;40.528;44.712;2023-08-07T01:17:44;80498.28;;;16.07;63.28
62680;BME280;68213;40.528;44.712;2023-08-07T01:18:49;80511.22;;;16.16;63.08
62680;BME280;68213;40.528;44.712;2023-08-07T01:19:51;80512.38;;;16.11;63.16
62680;BME280;68213;40.528;44.712;2023-08-07T01:20:52;80512.56;;;16.17;63.22
62680;BME280;68213;40.528;44.712;2023-08-07T01:22:12;80514.63;;;16.19;63.00
62680;BME280;68213;40.528;44.712;2023-08-07T01:23:13;80513.31;;;16.20;62.99
62680;BME280;68213;40.528;44.712;2023-08-07T01:24:14;80515.28;;;16.20;62.93
62680;BME280;68213;40.528;44.712;2023-08-07T01:25:14;80519.38;;;16.23;62.89
62680;BME280;68213;40.528;44.712;2023-08-07T01:26:19;80496.38;;;16.09;62.96
62680;BME280;68213;40.528;44.712;2023-08-07T01:27:37;80519.38;;;16.23;62.75
62680;BME280;68213;40.528;44.712;2023-08-07T01:29:00;80509.84;;;16.15;62.92
62680;BME280;68213;40.528;44.712;2023-08-07T01:30:17;80519.25;;;16.18;62.90
62680;BME280;68213;40.528;44.712;2023-08-07T01:31:22;80515.22;;;16.17;62.56
62680;BME280;68213;40.528;44.712;2023-08-07T01:32:42;80513.94;;;16.18;62.64
62680;BME280;68213;40.528;44.712;2023-08-07T01:34:02;80517.81;;;16.15;62.56
62680;BME280;68213;40.528;44.712;2023-08-07T01:35:05;80519.25;;;16.18;62.45
62680;BME280;68213;40.528;44.712;2023-08-07T01:36:07;80507.75;;;16.12;62.92
62680;BME280;68213;40.528;44.712;2023-08-07T01:37:10;80506.84;;;16.05;62.71
62680;BME280;68213;40.528;44.712;2023-08-07T01:38:11;80470.91;;;15.82;62.78
62680;BME280;68213;40.528;44.712;2023-08-07T01:39:13;80518.47;;;16.16;62.94
62680;BME280;68213;40.528;44.712;2023-08-07T01:40:15;80519.25;;;16.18;62.72
62680;BME280;68213;40.528;44.712;2023-08-07T01:41:17;80527.94;;;16.21;62.48
62680;BME280;68213;40.528;44.712;2023-08-07T01:42:18;80524.00;;;16.22;62.68
62680;BME280;68213;40.528;44.712;2023-08-07T01:43:19;80522.72;;;16.23;62.37
62680;BME280;68213;40.528;44.712;2023-08-07T01:44:19;80522.03;;;16.23;62.53
62680;BME280;68213;40.528;44.712;2023-08-07T01:45:27;80522.66;;;16.21;62.66
62680;BME280;68213;40.528;44.712;2023-08-07T01:46:28;80520.59;;;16.20;62.72
62680;BME280;68213;40.528;44.712;2023-08-07T01:47:29;80511.28;;;16.18;62.54
62680;BME280;68213;40.528;44.712;2023-08-07T01:48:29;80513.31;;;16.20;62.63
62680;BME280;68213;40.528;44.712;2023-08-07T01:49:30;80518.72;;;16.22;62.27
62680;BME280;68213;40.528;44.712;2023-08-07T01:50:31;80517.41;;;16.23;62.44
62680;BME280;68213;40.528;44.712;2023-08-07T01:51:31;80522.09;;;16.25;62.35
62680;BME280;68213;40.528;44.712;2023-08-07T01:52:32;80517.47;;;16.25;62.55
62680;BME280;68213;40.528;44.712;2023-08-07T01:53:33;80518.16;;;16.26;62.24
62680;BME280;68213;40.528;44.712;2023-08-07T01:54:34;80519.53;;;16.27;62.38
62680;BME280;68213;40.528;44.712;2023-08-07T01:55:34;80522.22;;;16.29;62.30
62680;BME280;68213;40.528;44.712;2023-08-07T01:56:35;80516.25;;;16.28;62.53
62680;BME280;68213;40.528;44.712;2023-08-07T01:57:36;80519.53;;;16.27;62.52
62680;BME280;68213;40.528;44.712;2023-08-07T01:58:36;80527.53;;;16.29;62.42
62680;BME280;68213;40.528;44.712;2023-08-07T01:59:38;80518.28;;;16.30;62.45
62680;BME280;68213;40.528;44.712;2023-08-07T02:00:39;80522.78;;;16.25;62.34
62680;BME280;68213;40.528;44.712;2023-08-07T02:01:39;80518.84;;;16.26;62.46
62680;BME280;68213;40.528;44.712;2023-08-07T02:02:40;80526.13;;;16.26;62.43
62680;BME280;68213;40.528;44.712;2023-08-07T02:03:41;80520.75;;;16.24;62.08
62680;BME280;68213;40.528;44.712;2023-08-07T02:04:41;80522.78;;;16.25;61.89
62680;BME280;68213;40.528;44.712;2023-08-07T02:05:45;80523.53;;;16.28;61.77
62680;BME280;68213;40.528;44.712;2023-08-07T02:06:51;80524.84;;;16.27;61.79
62680;BME280;68213;40.528;44.712;2023-08-07T02:07:52;80523.53;;;16.28;61.93
62680;BME280;68213;40.528;44.712;2023-08-07T02:08:55;80523.06;;;16.33;61.98
62680;BME280;68213;40.528;44.712;2023-08-07T02:09:58;80527.69;;;16.33;62.04
62680;BME280;68213;40.528;44.712;2023-08-07T02:10:58;80523.06;;;16.33;62.10
62680;BME280;68213;40.528;44.712;2023-08-07T02:12:01;80523.13;;;16.36;61.88
62680;BME280;68213;40.528;44.712;2023-08-07T02:13:02;80519.78;;;16.35;62.25
62680;BME280;68213;40.528;44.712;2023-08-07T02:14:03;80506.31;;;16.29;61.79
62680;BME280;68213;40.528;44.712;2023-08-07T02:15:04;80521.91;;;16.39;61.82
62680;BME280;68213;40.528;44.712;2023-08-07T02:16:06;80521.97;;;16.41;61.42
62680;BME280;68213;40.528;44.712;2023-08-07T02:17:07;80527.28;;;16.41;61.64
62680;BME280;68213;40.528;44.712;2023-08-07T02:18:07;80520.59;;;16.40;62.05
62680;BME280;68213;40.528;44.712;2023-08-07T02:19:08;80522.59;;;16.39;62.51
62680;BME280;68213;40.528;44.712;2023-08-07T02:20:09;80529.19;;;16.38;62.28
62680;BME280;68213;40.528;44.712;2023-08-07T02:21:10;80523.94;;;16.40;62.10
62680;BME280;68213;40.528;44.712;2023-08-07T02:22:11;80525.91;;;16.40;62.00
62680;BME280;68213;40.528;44.712;2023-08-07T02:23:11;80521.34;;;16.42;62.08
62680;BME280;68213;40.528;44.712;2023-08-07T02:24:15;80521.44;;;16.44;61.85
62680;BME280;68213;40.528;44.712;2023-08-07T02:25:16;80526.81;;;16.46;62.13
62680;BME280;68213;40.528;44.712;2023-08-07T02:26:17;80520.88;;;16.48;62.02
62680;BME280;68213;40.528;44.712;2023-08-07T02:27:17;80507.28;;;16.38;62.05
62680;BME280;68213;40.528;44.712;2023-08-07T02:28:18;80521.63;;;16.50;61.90
62680;BME280;68213;40.528;44.712;2023-08-07T02:29:19;80529.00;;;16.52;62.31
62680;BME280;68213;40.528;44.712;2023-08-07T02:30:19;80526.25;;;16.50;62.39
62680;BME280;68213;40.528;44.712;2023-08-07T02:31:20;80528.22;;;16.49;62.63
62680;BME280;68213;40.528;44.712;2023-08-07T02:32:20;80528.22;;;16.49;62.38
62680;BME280;68213;40.528;44.712;2023-08-07T02:33:21;80526.25;;;16.50;62.39
62680;BME280;68213;40.528;44.712;2023-08-07T02:34:22;80526.94;;;16.50;62.17
62680;BME280;68213;40.528;44.712;2023-08-07T02:35:22;80536.97;;;16.52;62.30
62680;BME280;68213;40.528;44.712;2023-08-07T02:36:23;80537.00;;;16.54;62.08
62680;BME280;68213;40.528;44.712;2023-08-07T02:37:24;80532.31;;;16.53;62.25
62680;BME280;68213;40.528;44.712;2023-08-07T02:38:25;80537.28;;;16.62;62.00
62680;BME280;68213;40.528;44.712;2023-08-07T02:39:26;80539.38;;;16.66;61.73
62680;BME280;68213;40.528;44.712;2023-08-07T02:40:27;80544.22;;;16.72;61.56
62680;BME280;68213;40.528;44.712;2023-08-07T02:41:27;80536.38;;;16.76;61.54
62680;BME280;68213;40.528;44.712;2023-08-07T02:42:28;80533.19;;;16.79;61.32
62680;BME280;68213;40.528;44.712;2023-08-07T02:43:29;80531.31;;;16.82;61.63
62680;BME280;68213;40.528;44.712;2023-08-07T02:44:29;80533.41;;;16.86;61.49
62680;BME280;68213;40.528;44.712;2023-08-07T02:45:30;80510.41;;;16.72;61.31
62680;BME280;68213;40.528;44.712;2023-08-07T02:46:30;80533.69;;;16.94;61.50
62680;BME280;68213;40.528;44.712;2023-08-07T02:47:31;80536.41;;;16.96;61.53
62680;BME280;68213;40.528;44.712;2023-08-07T02:48:32;80537.84;;;16.99;61.57
62680;BME280;68213;40.528;44.712;2023-08-07T02:49:33;80530.53;;;17.00;61.69
62680;BME280;68213;40.528;44.712;2023-08-07T02:50:33;80492.56;;;16.75;61.31
62680;BME280;68213;40.528;44.712;2023-08-07T02:51:37;80511.09;;;16.93;61.47
62680;BME280;68213;40.528;44.712;2023-08-07T02:52:38;80532.06;;;17.05;62.13
62680;BME280;68213;40.528;44.712;2023-08-07T02:53:39;80525.50;;;17.08;61.54
62680;BME280;68213;40.528;44.712;2023-08-07T02:54:39;80531.44;;;17.06;62.07
62680;BME280;68213;40.528;44.712;2023-08-07T02:55:43;80534.75;;;17.07;62.09
62680;BME280;68213;40.528;44.712;2023-08-07T02:56:44;80534.91;;;17.11;61.69
62680;BME280;68213;40.528;44.712;2023-08-07T02:57:45;80534.28;;;17.12;61.76
62680;BME280;68213;40.528;44.712;2023-08-07T02:58:45;80530.41;;;17.16;61.75
62680;BME280;68213;40.528;44.712;2023-08-07T02:59:47;80529.16;;;17.19;62.14
62680;BME280;68213;40.528;44.712;2023-08-07T03:00:48;80527.22;;;17.21;62.38
62680;BME280;68213;40.528;44.712;2023-08-07T03:01:51;80526.69;;;17.25;62.25
62680;BME280;68213;40.528;44.712;2023-08-07T03:02:52;80526.69;;;17.25;62.29
62680;BME280;68213;40.528;44.712;2023-08-07T03:03:53;80506.72;;;17.02;63.01
62680;BME280;68213;40.528;44.712;2023-08-07T03:04:53;80526.38;;;17.15;62.90
62680;BME280;68213;40.528;44.712;2023-08-07T03:05:54;80525.81;;;17.18;63.07
62680;BME280;68213;40.528;44.712;2023-08-07T03:06:55;80525.28;;;17.22;63.13
62680;BME280;68213;40.528;44.712;2023-08-07T03:07:55;80520.06;;;17.26;63.23
62680;BME280;68213;40.528;44.712;2023-08-07T03:08:56;80533.50;;;17.30;63.02
62680;BME280;68213;40.528;44.712;2023-08-07T03:09:57;80525.31;;;17.24;64.33
62680;BME280;68213;40.528;44.712;2023-08-07T03:10:58;80524.94;;;17.11;66.37
62680;BME280;68213;40.528;44.712;2023-08-07T03:11:58;80524.09;;;17.05;67.59
62680;BME280;68213;40.528;44.712;2023-08-07T03:13:03;80523.19;;;16.98;67.93
62680;BME280;68213;40.528;44.712;2023-08-07T03:14:04;80518.97;;;16.91;67.76
62680;BME280;68213;40.528;44.712;2023-08-07T03:15:05;80501.28;;;16.77;67.62
62680;BME280;68213;40.528;44.712;2023-08-07T03:16:06;80530.41;;;16.95;67.67
62680;BME280;68213;40.528;44.712;2023-08-07T03:17:07;80516.53;;;16.97;68.36
62680;BME280;68213;40.528;44.712;2023-08-07T03:18:08;80519.19;;;16.97;68.73
62680;BME280;68213;40.528;44.712;2023-08-07T03:19:09;80517.34;;;17.02;69.05
62680;BME280;68213;40.528;44.712;2023-08-07T03:20:10;80523.38;;;17.04;69.42
62680;BME280;68213;40.528;44.712;2023-08-07T03:21:11;80514.81;;;17.06;69.48
62680;BME280;68213;40.528;44.712;2023-08-07T03:22:11;80522.91;;;17.10;69.60
62680;BME280;68213;40.528;44.712;2023-08-07T03:23:12;80515.69;;;17.12;68.79
62680;BME280;68213;40.528;44.712;2023-08-07T03:24:13;80519.16;;;17.17;69.12
62680;BME280;68213;40.528;44.712;2023-08-07T03:25:13;80525.13;;;17.18;69.95
62680;BME280;68213;40.528;44.712;2023-08-07T03:26:14;80524.56;;;17.21;69.54
62680;BME280;68213;40.528;44.712;2023-08-07T03:27:15;80525.31;;;17.24;69.47
62680;BME280;68213;40.528;44.712;2023-08-07T03:28:16;80510.44;;;17.15;69.92
62680;BME280;68213;40.528;44.712;2023-08-07T03:29:17;80529.41;;;17.27;69.41
62680;BME280;68213;40.528;44.712;2023-08-07T03:30:18;80529.56;;;17.31;69.37
62680;BME280;68213;40.528;44.712;2023-08-07T03:31:19;80519.47;;;17.27;69.37
62680;BME280;68213;40.528;44.712;2023-08-07T03:32:19;80530.88;;;17.32;68.79
62680;BME280;68213;40.528;44.712;2023-08-07T03:33:20;80524.28;;;17.33;68.69
62680;BME280;68213;40.528;44.712;2023-08-07T03:34:21;80533.81;;;17.40;68.59
62680;BME280;68213;40.528;44.712;2023-08-07T03:35:22;80527.25;;;17.43;68.24
62680;BME280;68213;40.528;44.712;2023-08-07T03:36:25;80532.03;;;17.47;68.01
62680;BME280;68213;40.528;44.712;2023-08-07T03:37:26;80531.41;;;17.49;68.10
62680;BME280;68213;40.528;44.712;2023-08-07T03:38:27;80524.84;;;17.52;68.02
62680;BME280;68213;40.528;44.712;2023-08-07T03:39:27;80534.22;;;17.55;68.10
62680;BME280;68213;40.528;44.712;2023-08-07T03:40:28;80530.34;;;17.58;68.08
62680;BME280;68213;40.528;44.712;2023-08-07T03:41:29;80529.06;;;17.59;68.20
62680;BME280;68213;40.528;44.712;2023-08-07T03:42:29;80534.47;;;17.63;67.83
62680;BME280;68213;40.528;44.712;2023-08-07T03:43:30;80534.63;;;17.67;67.11
62680;BME280;68213;40.528;44.712;2023-08-07T03:44:32;80532.00;;;17.69;68.42
62680;BME280;68213;40.528;44.712;2023-08-07T03:45:34;80534.66;;;17.69;66.82
62680;BME280;68213;40.528;44.712;2023-08-07T03:46:35;80537.06;;;17.61;66.96
62680;BME280;68213;40.528;44.712;2023-08-07T03:47:36;80531.91;;;17.65;65.84
62680;BME280;68213;40.528;44.712;2023-08-07T03:48:38;80538.63;;;17.68;65.49
62680;BME280;68213;40.528;44.712;2023-08-07T03:49:38;80534.00;;;17.69;65.72
62680;BME280;68213;40.528;44.712;2023-08-07T03:50:39;80536.59;;;17.67;65.37
62680;BME280;68213;40.528;44.712;2023-08-07T03:51:42;80538.09;;;17.72;65.37
62680;BME280;68213;40.528;44.712;2023-08-07T03:52:43;80539.56;;;17.77;65.56
62680;BME280;68213;40.528;44.712;2023-08-07T03:53:43;80534.34;;;17.81;65.47
62680;BME280;68213;40.528;44.712;2023-08-07T03:54:44;80537.13;;;17.85;65.75
62680;BME280;68213;40.528;44.712;2023-08-07T03:55:49;80533.75;;;17.83;66.01
62680;BME280;68213;40.528;44.712;2023-08-07T03:56:51;80536.34;;;17.81;66.11
62680;BME280;68213;40.528;44.712;2023-08-07T03:57:51;80537.81;;;17.86;66.27
62680;BME280;68213;40.528;44.712;2023-08-07T03:58:53;80540.53;;;17.88;66.83
62680;BME280;68213;40.528;44.712;2023-08-07T03:59:53;80531.19;;;17.87;65.56
62680;BME280;68213;40.528;44.712;2023-08-07T04:00:55;80533.28;;;17.90;66.24
62680;BME280;68213;40.528;44.712;2023-08-07T04:01:56;80536.03;;;17.92;66.52
62680;BME280;68213;40.528;44.712;2023-08-07T04:02:57;80543.56;;;18.00;66.28
62680;BME280;68213;40.528;44.712;2023-08-07T04:03:57;80538.97;;;18.03;65.87
62680;BME280;68213;40.528;44.712;2023-08-07T04:04:58;80543.69;;;18.04;65.42
62680;BME280;68213;40.528;44.712;2023-08-07T04:07:12;80534.47;;;18.07;65.94
62680;BME280;68213;40.528;44.712;2023-08-07T04:08:13;80531.56;;;17.99;65.62
62680;BME280;68213;40.528;44.712;2023-08-07T04:09:13;80534.19;;;17.97;65.90
62680;BME280;68213;40.528;44.712;2023-08-07T04:10:14;80530.34;;;18.02;65.54
62680;BME280;68213;40.528;44.712;2023-08-07T04:11:15;80533.72;;;18.05;65.33
62680;BME280;68213;40.528;44.712;2023-08-07T04:12:16;80531.31;;;18.13;66.40
62680;BME280;68213;40.528;44.712;2023-08-07T04:13:17;80528.59;;;18.11;65.73
62680;BME280;68213;40.528;44.712;2023-08-07T04:14:17;80533.41;;;18.17;65.29
62680;BME280;68213;40.528;44.712;2023-08-07T04:15:18;80532.78;;;18.18;65.10
62680;BME280;68213;40.528;44.712;2023-08-07T04:16:19;80533.28;;;18.13;65.55
62680;BME280;68213;40.528;44.712;2023-08-07T04:17:20;80537.84;;;18.10;66.14
62680;BME280;68213;40.528;44.712;2023-08-07T04:18:21;80530.06;;;18.16;66.19
62680;BME280;68213;40.528;44.712;2023-08-07T04:19:21;80535.44;;;18.18;66.30
62680;BME280;68213;40.528;44.712;2023-08-07T04:20:22;80536.69;;;18.15;66.39
62680;BME280;68213;40.528;44.712;2023-08-07T04:21:22;80532.78;;;18.18;66.17
62680;BME280;68213;40.528;44.712;2023-08-07T04:22:23;80532.09;;;18.18;66.15
62680;BME280;68213;40.528;44.712;2023-08-07T04:23:24;80539.59;;;18.23;66.43
62680;BME280;68213;40.528;44.712;2023-08-07T04:24:25;80531.78;;;18.30;66.27
62680;BME280;68213;40.528;44.712;2023-08-07T04:25:26;80528.38;;;18.27;66.40
62680;BME280;68213;40.528;44.712;2023-08-07T04:26:27;80533.81;;;18.31;65.30
62680;BME280;68213;40.528;44.712;2023-08-07T04:27:27;80519.03;;;18.26;65.33
62680;BME280;68213;40.528;44.712;2023-08-07T04:28:28;80530.06;;;18.41;65.33
62680;BME280;68213;40.528;44.712;2023-08-07T04:29:29;80532.78;;;18.43;65.03
62680;BME280;68213;40.528;44.712;2023-08-07T04:30:30;80533.56;;;18.47;65.01
62680;BME280;68213;40.528;44.712;2023-08-07T04:31:31;80530.16;;;18.45;65.37
62680;BME280;68213;40.528;44.712;2023-08-07T04:32:31;80532.97;;;18.49;65.19
62680;BME280;68213;40.528;44.712;2023-08-07T04:33:32;80535.63;;;18.49;65.04
62680;BME280;68213;40.528;44.712;2023-08-07T04:34:33;80532.44;;;18.54;64.31
62680;BME280;68213;40.528;44.712;2023-08-07T04:35:33;80529.00;;;18.50;63.81
62680;BME280;68213;40.528;44.712;2023-08-07T04:36:34;80530.56;;;18.59;63.90
62680;BME280;68213;40.528;44.712;2023-08-07T04:37:35;80531.34;;;18.64;65.11
62680;BME280;68213;40.528;44.712;2023-08-07T04:38:35;80530.09;;;18.67;65.46
62680;BME280;68213;40.528;44.712;2023-08-07T04:39:36;80530.72;;;18.65;65.05
62680;BME280;68213;40.528;44.712;2023-08-07T04:41:45;80528.13;;;18.67;62.96
62680;BME280;68213;40.528;44.712;2023-08-07T04:42:46;80534.81;;;18.68;63.55
62680;BME280;68213;40.528;44.712;2023-08-07T04:43:46;80534.81;;;18.68;63.46
62680;BME280;68213;40.528;44.712;2023-08-07T04:44:48;80536.38;;;18.78;63.13
62680;BME280;68213;40.528;44.712;2023-08-07T04:45:49;80536.31;;;18.76;63.09
62680;BME280;68213;40.528;44.712;2023-08-07T04:46:49;80533.09;;;18.79;63.20
62680;BME280;68213;40.528;44.712;2023-08-07T04:47:53;80528.56;;;18.84;62.72
62680;BME280;68213;40.528;44.712;2023-08-07T04:48:54;80531.22;;;18.84;63.57
62680;BME280;68213;40.528;44.712;2023-08-07T04:49:54;80531.78;;;18.80;63.69
62680;BME280;68213;40.528;44.712;2023-08-07T04:50:56;80535.97;;;18.87;63.31
62680;BME280;68213;40.528;44.712;2023-08-07T04:52:00;80534.59;;;18.86;63.93
62680;BME280;68213;40.528;44.712;2023-08-07T04:53:01;80533.78;;;18.80;63.07
62680;BME280;68213;40.528;44.712;2023-08-07T04:54:02;80528.59;;;18.86;62.85
62680;BME280;68213;40.528;44.712;2023-08-07T04:55:03;80531.28;;;18.86;63.08
62680;BME280;68213;40.528;44.712;2023-08-07T04:56:04;80524.28;;;18.99;63.50
62680;BME280;68213;40.528;44.712;2023-08-07T04:57:07;80523.81;;;19.07;62.33
62680;BME280;68213;40.528;44.712;2023-08-07T04:58:08;80523.88;;;19.09;61.79
62680;BME280;68213;40.528;44.712;2023-08-07T04:59:09;80525.13;;;19.06;61.57
62680;BME280;68213;40.528;44.712;2023-08-07T05:00:10;80522.00;;;19.13;62.25
62680;BME280;68213;40.528;44.712;2023-08-07T05:01:13;80518.75;;;19.17;60.25
62680;BME280;68213;40.528;44.712;2023-08-07T05:02:14;80511.28;;;19.11;60.66
62680;BME280;68213;40.528;44.712;2023-08-07T05:03:15;80499.72;;;19.02;60.21
62680;BME280;68213;40.528;44.712;2023-08-07T05:04:16;80521.59;;;19.25;60.39
62680;BME280;68213;40.528;44.712;2023-08-07T05:05:18;80514.97;;;19.26;60.44
62680;BME280;68213;40.528;44.712;2023-08-07T05:06:21;80519.63;;;19.26;60.97
62680;BME280;68213;40.528;44.712;2023-08-07T05:07:22;80516.44;;;19.31;61.22
62680;BME280;68213;40.528;44.712;2023-08-07T05:08:23;80515.16;;;19.34;61.16
62680;BME280;68213;40.528;44.712;2023-08-07T05:09:23;80509.19;;;19.34;61.39
62680;BME280;68213;40.528;44.712;2023-08-07T05:11:27;80513.16;;;19.33;59.90
62680;BME280;68213;40.528;44.712;2023-08-07T05:12:30;80509.97;;;19.41;59.65
62680;BME280;68213;40.528;44.712;2023-08-07T05:13:30;80510.72;;;19.43;60.37
62680;BME280;68213;40.528;44.712;2023-08-07T05:14:31;80504.66;;;19.41;60.34
62680;BME280;68213;40.528;44.712;2023-08-07T05:15:32;80508.09;;;19.45;60.24
62680;BME280;68213;40.528;44.712;2023-08-07T05:16:32;80504.22;;;19.50;59.90
62680;BME280;68213;40.528;44.712;2023-08-07T05:17:33;80500.88;;;19.50;59.53
62680;BME280;68213;40.528;44.712;2023-08-07T05:18:34;80503.47;;;19.46;59.32
62680;BME280;68213;40.528;44.712;2023-08-07T05:19:34;80504.41;;;19.59;59.33
62680;BME280;68213;40.528;44.712;2023-08-07T05:20:35;80516.47;;;19.62;59.49
62680;BME280;68213;40.528;44.712;2023-08-07T05:21:36;80519.94;;;19.66;59.42
62680;BME280;68213;40.528;44.712;2023-08-07T05:22:36;80505.38;;;19.72;59.42
62680;BME280;68213;40.528;44.712;2023-08-07T05:23:38;80512.13;;;19.75;60.23
62680;BME280;68213;40.528;44.712;2023-08-07T05:24:38;80507.50;;;19.77;60.04
62680;BME280;68213;40.528;44.712;2023-08-07T05:25:39;80499.38;;;19.71;60.08
62680;BME280;68213;40.528;44.712;2023-08-07T05:26:40;80498.06;;;19.72;59.81
62680;BME280;68213;40.528;44.712;2023-08-07T05:27:41;80504.91;;;19.79;59.72
62680;BME280;68213;40.528;44.712;2023-08-07T05:28:41;80507.13;;;19.89;59.58